AUA805 LOWW-LGAV
Flight info
| Callsign | AUA805 |
|---|---|
| Flight time | 1h 48m |
| Altitude | 37000 |
| Route | ARSIN DCT NALOX DCT BABIT DCT NEVAK DCT RAXAD DCT MAKED UL617 SKP UM749 ROPOX |
| Aircraft | A320/M-SDE3FGHIRWY/LB1 |
Departure
| Time | 2026-04-26 17:07 |
|---|---|
| Airport | Vienna International Airport (LOWW) |
Arrival
| Time | 2026-04-26 18:55 |
|---|---|
| Airport | Athens Eleftherios Venizelos International Airport (LGAV) |
| Time | Latitude | Longitude | Altitude | Speed | Heading |
|---|---|---|---|---|---|
| 2026-04-26 16:38 | 48.11897 | 16.56767 | 609 ft | 0 kts | 206° |
| 2026-04-26 16:56 | 48.11906 | 16.56774 | 623 ft | 4 kts | 207° |
| 2026-04-26 16:57 | 48.11930 | 16.56793 | 609 ft | 4 kts | 208° |
| 2026-04-26 16:57 | 48.11953 | 16.56808 | 609 ft | 4 kts | 172° |
| 2026-04-26 16:57 | 48.11963 | 16.56803 | 609 ft | 0 kts | 116° |
| 2026-04-26 17:00 | 48.11950 | 16.56847 | 609 ft | 8 kts | 114° |
| 2026-04-26 17:01 | 48.11922 | 16.56939 | 616 ft | 9 kts | 114° |
| 2026-04-26 17:01 | 48.11895 | 16.57017 | 609 ft | 8 kts | 117° |
| 2026-04-26 17:01 | 48.11874 | 16.57082 | 615 ft | 6 kts | 117° |
| 2026-04-26 17:01 | 48.11859 | 16.57139 | 615 ft | 7 kts | 102° |
| 2026-04-26 17:02 | 48.11851 | 16.57224 | 618 ft | 8 kts | 108° |
| 2026-04-26 17:02 | 48.11829 | 16.57295 | 619 ft | 7 kts | 115° |
| 2026-04-26 17:02 | 48.11803 | 16.57342 | 621 ft | 6 kts | 145° |
| 2026-04-26 17:02 | 48.11749 | 16.57371 | 609 ft | 11 kts | 164° |
| 2026-04-26 17:03 | 48.11661 | 16.57408 | 609 ft | 13 kts | 164° |
| 2026-04-26 17:03 | 48.11577 | 16.57443 | 609 ft | 12 kts | 164° |
| 2026-04-26 17:03 | 48.11504 | 16.57461 | 609 ft | 10 kts | 187° |
| 2026-04-26 17:03 | 48.11443 | 16.57426 | 609 ft | 9 kts | 204° |
| 2026-04-26 17:04 | 48.11391 | 16.57389 | 621 ft | 9 kts | 206° |
| 2026-04-26 17:04 | 48.11337 | 16.57350 | 618 ft | 11 kts | 207° |
| 2026-04-26 17:04 | 48.11256 | 16.57289 | 609 ft | 13 kts | 206° |
| 2026-04-26 17:04 | 48.11182 | 16.57236 | 619 ft | 9 kts | 205° |
| 2026-04-26 17:05 | 48.11156 | 16.57218 | 609 ft | 0 kts | 205° |
| 2026-04-26 17:05 | 48.11127 | 16.57196 | 618 ft | 7 kts | 205° |
| 2026-04-26 17:05 | 48.11067 | 16.57146 | 620 ft | 12 kts | 226° |
| 2026-04-26 17:06 | 48.11074 | 16.57045 | 609 ft | 9 kts | 295° |
| 2026-04-26 17:06 | 48.11134 | 16.56861 | 609 ft | 46 kts | 296° |
| 2026-04-26 17:06 | 48.11380 | 16.56105 | 617 ft | 113 kts | 296° |
| 2026-04-26 17:06 | 48.11804 | 16.54800 | 625 ft | 163 kts | 298° |
| 2026-04-26 17:07 | 48.12231 | 16.53180 | 1104 ft | 173 kts | 277° |
| 2026-04-26 17:07 | 48.11927 | 16.51434 | 1741 ft | 183 kts | 236° |
| 2026-04-26 17:07 | 48.10903 | 16.50093 | 2042 ft | 208 kts | 215° |
| 2026-04-26 17:07 | 48.09633 | 16.48929 | 2579 ft | 218 kts | 209° |
| 2026-04-26 17:08 | 48.08182 | 16.48112 | 3077 ft | 237 kts | 195° |
| 2026-04-26 17:08 | 48.06457 | 16.47775 | 3462 ft | 264 kts | 183° |
| 2026-04-26 17:08 | 48.04553 | 16.47852 | 4057 ft | 281 kts | 177° |
| 2026-04-26 17:08 | 48.02580 | 16.48092 | 4857 ft | 286 kts | 175° |
| 2026-04-26 17:09 | 48.00584 | 16.48419 | 5720 ft | 291 kts | 174° |
| 2026-04-26 17:09 | 47.99252 | 16.48654 | 6327 ft | 292 kts | 173° |
| 2026-04-26 17:09 | 47.96600 | 16.49689 | 7461 ft | 298 kts | 160° |
| 2026-04-26 17:09 | 47.94651 | 16.50849 | 8284 ft | 302 kts | 158° |
| 2026-04-26 17:10 | 47.92723 | 16.52120 | 9034 ft | 308 kts | 158° |
| 2026-04-26 17:10 | 47.90753 | 16.53450 | 9785 ft | 313 kts | 158° |
| 2026-04-26 17:10 | 47.88743 | 16.54791 | 10494 ft | 321 kts | 158° |
| 2026-04-26 17:10 | 47.86650 | 16.56146 | 10929 ft | 337 kts | 158° |
| 2026-04-26 17:11 | 47.84426 | 16.57553 | 11176 ft | 359 kts | 159° |
| 2026-04-26 17:11 | 47.82070 | 16.59041 | 11543 ft | 375 kts | 158° |
| 2026-04-26 17:11 | 47.79643 | 16.60586 | 12182 ft | 382 kts | 158° |
| 2026-04-26 17:11 | 47.77194 | 16.62158 | 12857 ft | 386 kts | 158° |
| 2026-04-26 17:12 | 47.72214 | 16.65377 | 14179 ft | 394 kts | 158° |
| 2026-04-26 17:12 | 47.69689 | 16.67011 | 14814 ft | 398 kts | 158° |
| 2026-04-26 17:13 | 47.64555 | 16.70323 | 16033 ft | 406 kts | 158° |
| 2026-04-26 17:13 | 47.61953 | 16.71998 | 16628 ft | 409 kts | 158° |
| 2026-04-26 17:13 | 47.56590 | 16.75024 | 17750 ft | 416 kts | 169° |
| 2026-04-26 17:14 | 47.53736 | 16.75655 | 18305 ft | 416 kts | 179° |
| 2026-04-26 17:14 | 47.47913 | 16.76191 | 19451 ft | 421 kts | 179° |
| 2026-04-26 17:14 | 47.44978 | 16.76473 | 20019 ft | 424 kts | 179° |
| 2026-04-26 17:15 | 47.39052 | 16.77046 | 21106 ft | 430 kts | 179° |
| 2026-04-26 17:15 | 47.36059 | 16.77333 | 21624 ft | 432 kts | 179° |
| 2026-04-26 17:15 | 47.33050 | 16.77624 | 22127 ft | 435 kts | 179° |
| 2026-04-26 17:16 | 47.30025 | 16.77919 | 22616 ft | 437 kts | 179° |
| 2026-04-26 17:16 | 47.27021 | 16.78208 | 23052 ft | 440 kts | 179° |
| 2026-04-26 17:16 | 47.23964 | 16.78498 | 23191 ft | 440 kts | 179° |
| 2026-04-26 17:16 | 47.20911 | 16.78786 | 23219 ft | 440 kts | 179° |
| 2026-04-26 17:17 | 47.17859 | 16.79077 | 23221 ft | 439 kts | 179° |
| 2026-04-26 17:17 | 47.14812 | 16.79369 | 23219 ft | 439 kts | 179° |
| 2026-04-26 17:17 | 47.11765 | 16.79657 | 23219 ft | 439 kts | 179° |
| 2026-04-26 17:17 | 47.08716 | 16.79943 | 23221 ft | 439 kts | 179° |
| 2026-04-26 17:18 | 47.05667 | 16.80231 | 23221 ft | 439 kts | 179° |
| 2026-04-26 17:18 | 47.02626 | 16.80520 | 23221 ft | 438 kts | 179° |
| 2026-04-26 17:18 | 46.99578 | 16.80811 | 23221 ft | 439 kts | 179° |
| 2026-04-26 17:18 | 46.96532 | 16.81101 | 23220 ft | 439 kts | 179° |
| 2026-04-26 17:19 | 46.90525 | 16.82682 | 23219 ft | 443 kts | 160° |
| 2026-04-26 17:19 | 46.87754 | 16.84676 | 23221 ft | 445 kts | 148° |
| 2026-04-26 17:19 | 46.85294 | 16.87419 | 23221 ft | 446 kts | 136° |
| 2026-04-26 17:20 | 46.83241 | 16.90803 | 23219 ft | 445 kts | 124° |
| 2026-04-26 17:20 | 46.82096 | 16.93356 | 23219 ft | 445 kts | 121° |
| 2026-04-26 17:20 | 46.79922 | 16.98428 | 23219 ft | 445 kts | 121° |
| 2026-04-26 17:20 | 46.78277 | 17.02253 | 23221 ft | 445 kts | 121° |
| 2026-04-26 17:21 | 46.76628 | 17.06078 | 23248 ft | 447 kts | 121° |
| 2026-04-26 17:21 | 46.74962 | 17.09925 | 23688 ft | 450 kts | 121° |
| 2026-04-26 17:21 | 46.73288 | 17.13788 | 24123 ft | 452 kts | 121° |
| 2026-04-26 17:21 | 46.71600 | 17.17676 | 24534 ft | 455 kts | 121° |
| 2026-04-26 17:22 | 46.69903 | 17.21581 | 24944 ft | 457 kts | 121° |
| 2026-04-26 17:22 | 46.68200 | 17.25498 | 25323 ft | 459 kts | 122° |
| 2026-04-26 17:22 | 46.66486 | 17.29433 | 25703 ft | 461 kts | 122° |
| 2026-04-26 17:22 | 46.64763 | 17.33385 | 26081 ft | 463 kts | 122° |
| 2026-04-26 17:23 | 46.63034 | 17.37348 | 26449 ft | 465 kts | 122° |
| 2026-04-26 17:23 | 46.61300 | 17.41325 | 26800 ft | 467 kts | 122° |
| 2026-04-26 17:23 | 46.59554 | 17.45318 | 27139 ft | 469 kts | 122° |
| 2026-04-26 17:23 | 46.57798 | 17.49320 | 27484 ft | 471 kts | 122° |
| 2026-04-26 17:24 | 46.56033 | 17.53335 | 27815 ft | 472 kts | 122° |
| 2026-04-26 17:24 | 46.54265 | 17.57356 | 28125 ft | 474 kts | 122° |
| 2026-04-26 17:24 | 46.52488 | 17.61393 | 28442 ft | 475 kts | 123° |
| 2026-04-26 17:24 | 46.50703 | 17.65440 | 28733 ft | 477 kts | 123° |
| 2026-04-26 17:25 | 46.48912 | 17.69493 | 29024 ft | 478 kts | 123° |
| 2026-04-26 17:25 | 46.47115 | 17.73552 | 29313 ft | 479 kts | 123° |
| 2026-04-26 17:25 | 46.45313 | 17.77625 | 29590 ft | 480 kts | 123° |
| 2026-04-26 17:25 | 46.43509 | 17.81695 | 29848 ft | 481 kts | 123° |
| 2026-04-26 17:26 | 46.41695 | 17.85779 | 30081 ft | 482 kts | 123° |
| 2026-04-26 17:26 | 46.39877 | 17.89864 | 30322 ft | 483 kts | 123° |
| 2026-04-26 17:26 | 46.38056 | 17.93950 | 30577 ft | 483 kts | 123° |
| 2026-04-26 17:26 | 46.36235 | 17.98031 | 30878 ft | 482 kts | 124° |
| 2026-04-26 17:27 | 46.34419 | 18.02097 | 31177 ft | 481 kts | 124° |
| 2026-04-26 17:27 | 46.32602 | 18.06159 | 31453 ft | 480 kts | 124° |
| 2026-04-26 17:27 | 46.30786 | 18.10212 | 31729 ft | 480 kts | 124° |
| 2026-04-26 17:27 | 46.28969 | 18.14256 | 32023 ft | 479 kts | 124° |
| 2026-04-26 17:28 | 46.27156 | 18.18286 | 32314 ft | 478 kts | 124° |
| 2026-04-26 17:28 | 46.25345 | 18.22311 | 32597 ft | 477 kts | 124° |
| 2026-04-26 17:28 | 46.23537 | 18.26331 | 32860 ft | 477 kts | 124° |
| 2026-04-26 17:28 | 46.21731 | 18.30342 | 33118 ft | 476 kts | 124° |
| 2026-04-26 17:29 | 46.19920 | 18.34350 | 33368 ft | 476 kts | 124° |
| 2026-04-26 17:29 | 46.18721 | 18.36996 | 33542 ft | 476 kts | 124° |
| 2026-04-26 17:29 | 46.16298 | 18.42337 | 33883 ft | 475 kts | 124° |
| 2026-04-26 17:29 | 46.14485 | 18.46327 | 34134 ft | 475 kts | 124° |
| 2026-04-26 17:30 | 46.12674 | 18.50307 | 34385 ft | 475 kts | 124° |
| 2026-04-26 17:30 | 46.10863 | 18.54284 | 34645 ft | 474 kts | 124° |
| 2026-04-26 17:30 | 46.09056 | 18.58251 | 34883 ft | 474 kts | 124° |
| 2026-04-26 17:30 | 46.07248 | 18.62223 | 35113 ft | 474 kts | 124° |
| 2026-04-26 17:31 | 46.05439 | 18.66186 | 35331 ft | 474 kts | 124° |
| 2026-04-26 17:31 | 46.03627 | 18.70145 | 35536 ft | 474 kts | 124° |
| 2026-04-26 17:31 | 46.01813 | 18.74100 | 35738 ft | 474 kts | 124° |
| 2026-04-26 17:31 | 45.99995 | 18.78059 | 35924 ft | 474 kts | 124° |
| 2026-04-26 17:32 | 45.98172 | 18.82005 | 36145 ft | 472 kts | 126° |
| 2026-04-26 17:32 | 45.96007 | 18.85518 | 36382 ft | 469 kts | 141° |
| 2026-04-26 17:32 | 45.93405 | 18.88313 | 36565 ft | 467 kts | 146° |
| 2026-04-26 17:32 | 45.90751 | 18.90991 | 36743 ft | 466 kts | 147° |
| 2026-04-26 17:33 | 45.88094 | 18.93640 | 36967 ft | 464 kts | 147° |
| 2026-04-26 17:33 | 45.85444 | 18.96266 | 37134 ft | 462 kts | 147° |
| 2026-04-26 17:34 | 45.77549 | 19.04079 | 37177 ft | 459 kts | 147° |
| 2026-04-26 17:34 | 45.72293 | 19.09279 | 37170 ft | 459 kts | 147° |
| 2026-04-26 17:35 | 45.67043 | 19.14484 | 37177 ft | 459 kts | 147° |
| 2026-04-26 17:35 | 45.61789 | 19.19681 | 37166 ft | 459 kts | 147° |
| 2026-04-26 17:36 | 45.56524 | 19.24861 | 37166 ft | 460 kts | 147° |
| 2026-04-26 17:36 | 45.51290 | 19.30008 | 37167 ft | 460 kts | 147° |
| 2026-04-26 17:37 | 45.46016 | 19.35176 | 37172 ft | 460 kts | 147° |
| 2026-04-26 17:37 | 45.40741 | 19.40331 | 37177 ft | 460 kts | 147° |
| 2026-04-26 17:38 | 45.32815 | 19.48053 | 37179 ft | 460 kts | 147° |
| 2026-04-26 17:38 | 45.27525 | 19.53195 | 37172 ft | 461 kts | 147° |
| 2026-04-26 17:39 | 45.22235 | 19.58336 | 37172 ft | 461 kts | 147° |
| 2026-04-26 17:39 | 45.17836 | 19.62605 | 37173 ft | 461 kts | 147° |
| 2026-04-26 17:40 | 45.13393 | 19.66897 | 37180 ft | 461 kts | 147° |
| 2026-04-26 17:40 | 45.07233 | 19.72836 | 37172 ft | 461 kts | 147° |
| 2026-04-26 17:41 | 45.01930 | 19.77927 | 37171 ft | 461 kts | 147° |
| 2026-04-26 17:41 | 44.96625 | 19.83019 | 37167 ft | 461 kts | 147° |
| 2026-04-26 17:42 | 44.91324 | 19.88099 | 37172 ft | 461 kts | 147° |
| 2026-04-26 17:42 | 44.86017 | 19.93166 | 37166 ft | 461 kts | 147° |
| 2026-04-26 17:43 | 44.80705 | 19.98228 | 37166 ft | 460 kts | 147° |
| 2026-04-26 17:43 | 44.75401 | 20.03273 | 37165 ft | 461 kts | 147° |
| 2026-04-26 17:44 | 44.70081 | 20.08319 | 37164 ft | 461 kts | 147° |
| 2026-04-26 17:44 | 44.64762 | 20.13351 | 37163 ft | 461 kts | 147° |
| 2026-04-26 17:45 | 44.59438 | 20.18371 | 37161 ft | 461 kts | 147° |
| 2026-04-26 17:45 | 44.54122 | 20.23383 | 37161 ft | 461 kts | 147° |
| 2026-04-26 17:46 | 44.48799 | 20.28389 | 37161 ft | 461 kts | 147° |
| 2026-04-26 17:46 | 44.43474 | 20.33393 | 37161 ft | 461 kts | 147° |
| 2026-04-26 17:47 | 44.39048 | 20.37535 | 37161 ft | 461 kts | 147° |
| 2026-04-26 17:47 | 44.32823 | 20.43354 | 37161 ft | 461 kts | 148° |
| 2026-04-26 17:48 | 44.27481 | 20.48320 | 37155 ft | 461 kts | 148° |
| 2026-04-26 17:48 | 44.22144 | 20.53275 | 37152 ft | 461 kts | 148° |
| 2026-04-26 17:49 | 44.16808 | 20.58224 | 37152 ft | 461 kts | 148° |
| 2026-04-26 17:49 | 44.11470 | 20.63169 | 37151 ft | 461 kts | 148° |
| 2026-04-26 17:50 | 44.06138 | 20.68096 | 37142 ft | 460 kts | 148° |
| 2026-04-26 17:50 | 44.00805 | 20.73011 | 37139 ft | 460 kts | 148° |
| 2026-04-26 17:51 | 43.95463 | 20.77917 | 37136 ft | 460 kts | 148° |
| 2026-04-26 17:51 | 43.90116 | 20.82824 | 37131 ft | 461 kts | 148° |
| 2026-04-26 17:52 | 43.84767 | 20.87722 | 37133 ft | 461 kts | 148° |
| 2026-04-26 17:52 | 43.79416 | 20.92617 | 37134 ft | 461 kts | 148° |
| 2026-04-26 17:53 | 43.74067 | 20.97507 | 37133 ft | 461 kts | 148° |
| 2026-04-26 17:54 | 43.66026 | 21.04803 | 37135 ft | 461 kts | 148° |
| 2026-04-26 17:54 | 43.60662 | 21.09666 | 37133 ft | 461 kts | 148° |
| 2026-04-26 17:55 | 43.55289 | 21.14521 | 37133 ft | 462 kts | 148° |
| 2026-04-26 17:55 | 43.49916 | 21.19376 | 37131 ft | 462 kts | 148° |
| 2026-04-26 17:56 | 43.44536 | 21.24221 | 37123 ft | 462 kts | 148° |
| 2026-04-26 17:57 | 43.33809 | 21.33850 | 37121 ft | 462 kts | 148° |
| 2026-04-26 17:57 | 43.28424 | 21.38674 | 37117 ft | 462 kts | 148° |
| 2026-04-26 17:58 | 43.17638 | 21.48293 | 37106 ft | 463 kts | 148° |
| 2026-04-26 17:59 | 43.09542 | 21.55491 | 37102 ft | 463 kts | 148° |
| 2026-04-26 17:59 | 43.04136 | 21.60280 | 37101 ft | 463 kts | 148° |
| 2026-04-26 18:00 | 42.98718 | 21.65068 | 37101 ft | 464 kts | 148° |
| 2026-04-26 18:00 | 42.93298 | 21.69850 | 37103 ft | 464 kts | 148° |
| 2026-04-26 18:01 | 42.87864 | 21.74639 | 37112 ft | 465 kts | 149° |
| 2026-04-26 18:01 | 42.82432 | 21.79419 | 37108 ft | 465 kts | 149° |
| 2026-04-26 18:02 | 42.77907 | 21.83390 | 37108 ft | 465 kts | 149° |
| 2026-04-26 18:02 | 42.71543 | 21.88965 | 37103 ft | 466 kts | 149° |
| 2026-04-26 18:03 | 42.66091 | 21.93728 | 37096 ft | 466 kts | 149° |
| 2026-04-26 18:03 | 42.60630 | 21.98490 | 37080 ft | 467 kts | 149° |
| 2026-04-26 18:04 | 42.55162 | 22.03251 | 37073 ft | 467 kts | 149° |
| 2026-04-26 18:05 | 42.46937 | 22.10378 | 37057 ft | 468 kts | 149° |
| 2026-04-26 18:05 | 42.41442 | 22.15113 | 37058 ft | 468 kts | 149° |
| 2026-04-26 18:06 | 42.35945 | 22.19863 | 37061 ft | 469 kts | 149° |
| 2026-04-26 18:06 | 42.30209 | 22.23960 | 37058 ft | 465 kts | 163° |
| 2026-04-26 18:07 | 42.23968 | 22.25909 | 37069 ft | 459 kts | 173° |
| 2026-04-26 18:07 | 42.17683 | 22.27371 | 37085 ft | 458 kts | 173° |
| 2026-04-26 18:08 | 42.11410 | 22.28842 | 37085 ft | 457 kts | 173° |
| 2026-04-26 18:08 | 42.05149 | 22.30323 | 37085 ft | 456 kts | 173° |
| 2026-04-26 18:09 | 41.98894 | 22.31803 | 37085 ft | 456 kts | 173° |
| 2026-04-26 18:09 | 41.92642 | 22.33269 | 37082 ft | 456 kts | 173° |
| 2026-04-26 18:10 | 41.86426 | 22.34709 | 37077 ft | 456 kts | 173° |
| 2026-04-26 18:10 | 41.80169 | 22.36158 | 37077 ft | 456 kts | 173° |
| 2026-04-26 18:11 | 41.73912 | 22.37608 | 37075 ft | 457 kts | 173° |
| 2026-04-26 18:11 | 41.67649 | 22.39070 | 37071 ft | 457 kts | 173° |
| 2026-04-26 18:12 | 41.61385 | 22.40530 | 37069 ft | 457 kts | 173° |
| 2026-04-26 18:12 | 41.55118 | 22.41982 | 37068 ft | 457 kts | 173° |
| 2026-04-26 18:13 | 41.48846 | 22.43430 | 37067 ft | 457 kts | 173° |
| 2026-04-26 18:13 | 41.42579 | 22.44872 | 37065 ft | 457 kts | 173° |
| 2026-04-26 18:14 | 41.36318 | 22.46315 | 37058 ft | 456 kts | 173° |
| 2026-04-26 18:14 | 41.30060 | 22.47748 | 37052 ft | 456 kts | 173° |
| 2026-04-26 18:15 | 41.23798 | 22.49176 | 37054 ft | 457 kts | 173° |
| 2026-04-26 18:15 | 41.17531 | 22.50612 | 37050 ft | 457 kts | 173° |
| 2026-04-26 18:16 | 41.11395 | 22.52846 | 37050 ft | 461 kts | 158° |
| 2026-04-26 18:16 | 41.02867 | 22.58835 | 37033 ft | 463 kts | 154° |
| 2026-04-26 18:17 | 40.97191 | 22.62857 | 37028 ft | 463 kts | 154° |
| 2026-04-26 18:17 | 40.91513 | 22.66881 | 37024 ft | 463 kts | 154° |
| 2026-04-26 18:18 | 40.85830 | 22.70903 | 37016 ft | 463 kts | 154° |
| 2026-04-26 18:18 | 40.80146 | 22.74929 | 37011 ft | 464 kts | 154° |
| 2026-04-26 18:19 | 40.74451 | 22.78939 | 37004 ft | 464 kts | 154° |
| 2026-04-26 18:19 | 40.68751 | 22.82938 | 37003 ft | 464 kts | 154° |
| 2026-04-26 18:20 | 40.63050 | 22.86940 | 37002 ft | 465 kts | 154° |
| 2026-04-26 18:20 | 40.59274 | 22.89592 | 37001 ft | 464 kts | 154° |
| 2026-04-26 18:21 | 40.51634 | 22.94943 | 37001 ft | 466 kts | 154° |
| 2026-04-26 18:21 | 40.45895 | 22.98905 | 37004 ft | 465 kts | 158° |
| 2026-04-26 18:22 | 40.39883 | 23.01993 | 37007 ft | 464 kts | 162° |
| 2026-04-26 18:22 | 40.33842 | 23.04993 | 37007 ft | 464 kts | 162° |
| 2026-04-26 18:23 | 40.27809 | 23.07998 | 37007 ft | 464 kts | 162° |
| 2026-04-26 18:23 | 40.21774 | 23.10998 | 37005 ft | 464 kts | 162° |
| 2026-04-26 18:24 | 40.16756 | 23.13484 | 37003 ft | 464 kts | 162° |
| 2026-04-26 18:24 | 40.09728 | 23.16953 | 37003 ft | 465 kts | 162° |
| 2026-04-26 18:25 | 40.04662 | 23.19454 | 37002 ft | 465 kts | 162° |
| 2026-04-26 18:25 | 39.98611 | 23.22433 | 37000 ft | 465 kts | 162° |
| 2026-04-26 18:26 | 39.92559 | 23.25407 | 36997 ft | 465 kts | 162° |
| 2026-04-26 18:26 | 39.86498 | 23.28385 | 36997 ft | 466 kts | 162° |
| 2026-04-26 18:27 | 39.80429 | 23.31359 | 36998 ft | 466 kts | 162° |
| 2026-04-26 18:27 | 39.74352 | 23.34330 | 37002 ft | 466 kts | 162° |
| 2026-04-26 18:28 | 39.68314 | 23.37279 | 37002 ft | 467 kts | 162° |
| 2026-04-26 18:28 | 39.62228 | 23.40234 | 37006 ft | 467 kts | 162° |
| 2026-04-26 18:29 | 39.56140 | 23.43189 | 37009 ft | 467 kts | 162° |
| 2026-04-26 18:29 | 39.50041 | 23.46147 | 37013 ft | 468 kts | 162° |
| 2026-04-26 18:30 | 39.43948 | 23.49102 | 37014 ft | 468 kts | 162° |
| 2026-04-26 18:30 | 39.37850 | 23.52053 | 37011 ft | 468 kts | 162° |
| 2026-04-26 18:31 | 39.31755 | 23.55007 | 37014 ft | 468 kts | 162° |
| 2026-04-26 18:31 | 39.25662 | 23.57943 | 37013 ft | 467 kts | 162° |
| 2026-04-26 18:32 | 39.19559 | 23.60831 | 37008 ft | 466 kts | 165° |
| 2026-04-26 18:32 | 39.13234 | 23.62325 | 37013 ft | 461 kts | 176° |
| 2026-04-26 18:33 | 39.10046 | 23.62786 | 36826 ft | 462 kts | 176° |
| 2026-04-26 18:33 | 39.06827 | 23.63253 | 35879 ft | 469 kts | 176° |
| 2026-04-26 18:33 | 39.03580 | 23.63729 | 35024 ft | 471 kts | 176° |
| 2026-04-26 18:33 | 39.00312 | 23.64209 | 34091 ft | 475 kts | 176° |
| 2026-04-26 18:34 | 38.97018 | 23.64694 | 33134 ft | 478 kts | 176° |
| 2026-04-26 18:34 | 38.93701 | 23.65183 | 32078 ft | 483 kts | 175° |
| 2026-04-26 18:34 | 38.90342 | 23.65678 | 31015 ft | 488 kts | 175° |
| 2026-04-26 18:34 | 38.86967 | 23.66176 | 30161 ft | 487 kts | 175° |
| 2026-04-26 18:35 | 38.83640 | 23.66669 | 29850 ft | 473 kts | 175° |
| 2026-04-26 18:35 | 38.80427 | 23.67148 | 29741 ft | 457 kts | 175° |
| 2026-04-26 18:35 | 38.77303 | 23.67613 | 29279 ft | 451 kts | 175° |
| 2026-04-26 18:35 | 38.74183 | 23.68075 | 28599 ft | 451 kts | 175° |
| 2026-04-26 18:36 | 38.71065 | 23.68534 | 27943 ft | 450 kts | 175° |
| 2026-04-26 18:36 | 38.67957 | 23.68989 | 27291 ft | 449 kts | 175° |
| 2026-04-26 18:36 | 38.64857 | 23.69439 | 26641 ft | 447 kts | 175° |
| 2026-04-26 18:36 | 38.61777 | 23.69887 | 26005 ft | 445 kts | 175° |
| 2026-04-26 18:37 | 38.58710 | 23.70332 | 25357 ft | 442 kts | 175° |
| 2026-04-26 18:37 | 38.55661 | 23.70774 | 24727 ft | 440 kts | 174° |
| 2026-04-26 18:37 | 38.52629 | 23.71215 | 24111 ft | 437 kts | 174° |
| 2026-04-26 18:37 | 38.49624 | 23.71652 | 23503 ft | 434 kts | 174° |
| 2026-04-26 18:38 | 38.46640 | 23.72088 | 22947 ft | 430 kts | 174° |
| 2026-04-26 18:38 | 38.43677 | 23.72520 | 22383 ft | 427 kts | 174° |
| 2026-04-26 18:38 | 38.40739 | 23.72945 | 21877 ft | 422 kts | 174° |
| 2026-04-26 18:38 | 38.37831 | 23.73369 | 21363 ft | 419 kts | 174° |
| 2026-04-26 18:39 | 38.34943 | 23.73789 | 20863 ft | 416 kts | 174° |
| 2026-04-26 18:39 | 38.32085 | 23.74205 | 20352 ft | 412 kts | 174° |
| 2026-04-26 18:39 | 38.29241 | 23.74618 | 19840 ft | 409 kts | 173° |
| 2026-04-26 18:39 | 38.26421 | 23.75026 | 19313 ft | 407 kts | 173° |
| 2026-04-26 18:40 | 38.23617 | 23.75428 | 18793 ft | 404 kts | 173° |
| 2026-04-26 18:40 | 38.20824 | 23.75770 | 18250 ft | 403 kts | 178° |
| 2026-04-26 18:40 | 38.18102 | 23.75538 | 17725 ft | 401 kts | 190° |
| 2026-04-26 18:40 | 38.15433 | 23.74595 | 17194 ft | 397 kts | 202° |
| 2026-04-26 18:41 | 38.13004 | 23.72996 | 16853 ft | 388 kts | 214° |
| 2026-04-26 18:41 | 38.10830 | 23.71152 | 16717 ft | 363 kts | 215° |
| 2026-04-26 18:41 | 38.08789 | 23.69445 | 16563 ft | 342 kts | 214° |
| 2026-04-26 18:41 | 38.06824 | 23.67813 | 16361 ft | 334 kts | 214° |
| 2026-04-26 18:42 | 38.04895 | 23.66212 | 16007 ft | 329 kts | 215° |
| 2026-04-26 18:42 | 38.02990 | 23.64630 | 15453 ft | 326 kts | 215° |
| 2026-04-26 18:42 | 38.01106 | 23.63060 | 14899 ft | 323 kts | 215° |
| 2026-04-26 18:42 | 37.99238 | 23.61500 | 14366 ft | 320 kts | 215° |
| 2026-04-26 18:43 | 37.97387 | 23.59950 | 13809 ft | 317 kts | 215° |
| 2026-04-26 18:43 | 37.95553 | 23.58413 | 13226 ft | 314 kts | 215° |
| 2026-04-26 18:43 | 37.93742 | 23.56895 | 12607 ft | 311 kts | 215° |
| 2026-04-26 18:43 | 37.91948 | 23.55394 | 11972 ft | 307 kts | 215° |
| 2026-04-26 18:44 | 37.90170 | 23.53911 | 11343 ft | 305 kts | 215° |
| 2026-04-26 18:44 | 37.88400 | 23.52437 | 10724 ft | 303 kts | 216° |
| 2026-04-26 18:44 | 37.86666 | 23.50994 | 10409 ft | 290 kts | 216° |
| 2026-04-26 18:44 | 37.85038 | 23.49643 | 10236 ft | 271 kts | 216° |
| 2026-04-26 18:45 | 37.83469 | 23.48384 | 9955 ft | 266 kts | 209° |
| 2026-04-26 18:45 | 37.81709 | 23.47666 | 9832 ft | 269 kts | 188° |
| 2026-04-26 18:45 | 37.79840 | 23.47762 | 9672 ft | 272 kts | 168° |
| 2026-04-26 18:45 | 37.78075 | 23.48698 | 9155 ft | 279 kts | 143° |
| 2026-04-26 18:46 | 37.76728 | 23.50374 | 9015 ft | 267 kts | 123° |
| 2026-04-26 18:46 | 37.75941 | 23.52389 | 8876 ft | 246 kts | 103° |
| 2026-04-26 18:46 | 37.75677 | 23.54427 | 8754 ft | 227 kts | 93° |
| 2026-04-26 18:46 | 37.75520 | 23.56365 | 8472 ft | 218 kts | 93° |
| 2026-04-26 18:47 | 37.75369 | 23.58239 | 8084 ft | 217 kts | 92° |
| 2026-04-26 18:47 | 37.75218 | 23.60152 | 7675 ft | 215 kts | 92° |
| 2026-04-26 18:47 | 37.75070 | 23.62001 | 7279 ft | 214 kts | 92° |
| 2026-04-26 18:47 | 37.74920 | 23.63871 | 6880 ft | 214 kts | 92° |
| 2026-04-26 18:48 | 37.74773 | 23.65736 | 6497 ft | 212 kts | 92° |
| 2026-04-26 18:48 | 37.74621 | 23.67610 | 5942 ft | 219 kts | 92° |
| 2026-04-26 18:48 | 37.74467 | 23.69549 | 5368 ft | 225 kts | 92° |
| 2026-04-26 18:48 | 37.74306 | 23.71548 | 4759 ft | 233 kts | 92° |
| 2026-04-26 18:49 | 37.74382 | 23.73585 | 4190 ft | 231 kts | 71° |
| 2026-04-26 18:49 | 37.75028 | 23.75347 | 3951 ft | 213 kts | 50° |
| 2026-04-26 18:49 | 37.76013 | 23.76594 | 3827 ft | 191 kts | 32° |
| 2026-04-26 18:49 | 37.77031 | 23.77549 | 3759 ft | 173 kts | 33° |
| 2026-04-26 18:50 | 37.77977 | 23.78449 | 3686 ft | 168 kts | 33° |
| 2026-04-26 18:50 | 37.78891 | 23.79318 | 3490 ft | 158 kts | 32° |
| 2026-04-26 18:50 | 37.79735 | 23.80118 | 3310 ft | 146 kts | 32° |
| 2026-04-26 18:50 | 37.80540 | 23.80880 | 3134 ft | 144 kts | 32° |
| 2026-04-26 18:51 | 37.81348 | 23.81644 | 2938 ft | 146 kts | 32° |
| 2026-04-26 18:51 | 37.82166 | 23.82417 | 2749 ft | 148 kts | 33° |
| 2026-04-26 18:51 | 37.83002 | 23.83207 | 2556 ft | 152 kts | 34° |
| 2026-04-26 18:51 | 37.83858 | 23.84018 | 2352 ft | 154 kts | 36° |
| 2026-04-26 18:52 | 37.84707 | 23.84824 | 2161 ft | 152 kts | 38° |
| 2026-04-26 18:52 | 37.85544 | 23.85618 | 1953 ft | 149 kts | 38° |
| 2026-04-26 18:52 | 37.86367 | 23.86394 | 1756 ft | 145 kts | 35° |
| 2026-04-26 18:52 | 37.87160 | 23.87144 | 1570 ft | 141 kts | 36° |
| 2026-04-26 18:53 | 37.87931 | 23.87891 | 1385 ft | 139 kts | 37° |
| 2026-04-26 18:53 | 37.88698 | 23.88637 | 1224 ft | 138 kts | 35° |
| 2026-04-26 18:53 | 37.89403 | 23.89295 | 1065 ft | 138 kts | 36° |
| 2026-04-26 18:53 | 37.90172 | 23.90019 | 877 ft | 138 kts | 36° |
| 2026-04-26 18:54 | 37.90942 | 23.90741 | 656 ft | 137 kts | 36° |
| 2026-04-26 18:54 | 37.91701 | 23.91479 | 476 ft | 138 kts | 36° |
| 2026-04-26 18:54 | 37.92469 | 23.92197 | 336 ft | 136 kts | 36° |
| 2026-04-26 18:54 | 37.93193 | 23.92881 | 290 ft | 116 kts | 36° |
| 2026-04-26 18:55 | 37.93701 | 23.93366 | 296 ft | 67 kts | 37° |
| 2026-04-26 18:55 | 37.93964 | 23.93614 | 294 ft | 39 kts | 37° |
| 2026-04-26 18:55 | 37.94161 | 23.93814 | 299 ft | 32 kts | 47° |
| 2026-04-26 18:55 | 37.94258 | 23.94010 | 302 ft | 22 kts | 64° |
| 2026-04-26 18:56 | 37.94278 | 23.94132 | 302 ft | 12 kts | 99° |
| 2026-04-26 18:56 | 37.94246 | 23.94227 | 301 ft | 11 kts | 126° |
| 2026-04-26 18:56 | 37.94185 | 23.94246 | 301 ft | 9 kts | 204° |
| 2026-04-26 18:56 | 37.94139 | 23.94201 | 301 ft | 8 kts | 216° |
| 2026-04-26 18:57 | 37.94098 | 23.94163 | 301 ft | 7 kts | 216° |
| 2026-04-26 18:57 | 37.94073 | 23.94141 | 301 ft | 6 kts | 216° |
| 2026-04-26 18:57 | 37.94031 | 23.94102 | 301 ft | 5 kts | 217° |
| 2026-04-26 18:57 | 37.94005 | 23.94076 | 301 ft | 4 kts | 218° |
| 2026-04-26 18:58 | 37.93983 | 23.94055 | 301 ft | 4 kts | 218° |
| 2026-04-26 18:58 | 37.93966 | 23.94037 | 301 ft | 3 kts | 217° |
| 2026-04-26 18:58 | 37.93950 | 23.94023 | 301 ft | 2 kts | 217° |
| 2026-04-26 18:58 | 37.93938 | 23.94012 | 301 ft | 2 kts | 216° |
| 2026-04-26 18:59 | 37.93928 | 23.94003 | 301 ft | 2 kts | 216° |
| 2026-04-26 18:59 | 37.93888 | 23.93965 | 301 ft | 14 kts | 216° |
| 2026-04-26 18:59 | 37.93795 | 23.93876 | 300 ft | 18 kts | 217° |
| 2026-04-26 18:59 | 37.93689 | 23.93775 | 300 ft | 20 kts | 217° |
| 2026-04-26 19:00 | 37.93574 | 23.93664 | 300 ft | 21 kts | 216° |
| 2026-04-26 19:00 | 37.93451 | 23.93551 | 300 ft | 20 kts | 216° |
| 2026-04-26 19:00 | 37.93349 | 23.93576 | 301 ft | 17 kts | 129° |
| 2026-04-26 19:00 | 37.93274 | 23.93701 | 301 ft | 18 kts | 128° |
| 2026-04-26 19:01 | 37.93194 | 23.93831 | 301 ft | 20 kts | 126° |
| 2026-04-26 19:01 | 37.93110 | 23.93976 | 301 ft | 21 kts | 127° |
| 2026-04-26 19:01 | 37.93018 | 23.94128 | 301 ft | 22 kts | 126° |
| 2026-04-26 19:01 | 37.92921 | 23.94290 | 301 ft | 24 kts | 128° |
| 2026-04-26 19:02 | 37.92840 | 23.94427 | 302 ft | 12 kts | 123° |
| 2026-04-26 19:02 | 37.92851 | 23.94522 | 302 ft | 13 kts | 47° |
| 2026-04-26 19:02 | 37.92927 | 23.94595 | 301 ft | 15 kts | 36° |
| 2026-04-26 19:02 | 37.92986 | 23.94650 | 301 ft | 16 kts | 37° |
| 2026-04-26 19:03 | 37.93115 | 23.94773 | 300 ft | 19 kts | 36° |
| 2026-04-26 19:03 | 37.93227 | 23.94874 | 299 ft | 20 kts | 34° |
| 2026-04-26 19:03 | 37.93351 | 23.94976 | 299 ft | 22 kts | 32° |
| 2026-04-26 19:03 | 37.93474 | 23.95096 | 299 ft | 23 kts | 50° |
| 2026-04-26 19:04 | 37.93601 | 23.95233 | 297 ft | 25 kts | 36° |
| 2026-04-26 19:04 | 37.93737 | 23.95363 | 296 ft | 18 kts | 36° |
| 2026-04-26 19:04 | 37.93830 | 23.95419 | 297 ft | 14 kts | 354° |
| 2026-04-26 19:04 | 37.93896 | 23.95341 | 299 ft | 10 kts | 307° |
| 2026-04-26 19:05 | 37.93992 | 23.95326 | 300 ft | 3 kts | 38° |
| 2026-04-26 19:05 | 37.94003 | 23.95336 | 300 ft | 0 kts | 38° |